Time;durP1;ratioP1;P1;durP2;ratioP2;P2;SDS_P1;SDS_P2;PMS_P1;PMS_P2;Temp;Humidity;BMP_temperature;BMP_pressure;BME280_temperature;BME280_humidity;BME280_pressure;Samples;Min_cycle;Max_cycle;Signal;HPM_P1;HPM_P2
2023/01/23 00:02:12;;;;;;;31.35;28.67;;;;;;;;;;5085646;28;20213;-83
2023/01/23 00:04:41;;;;;;;32.47;29.73;;;;;;;;;;5084648;28;20222;-83
2023/01/23 00:07:08;;;;;;;31.17;28.65;;;;;;;;;;5085564;28;20233;-83
2023/01/23 00:09:35;;;;;;;30.65;28.20;;;;;;;;;;5085196;28;20259;-83
2023/01/23 00:12:02;;;;;;;32.83;30.23;;;;;;;;;;5085388;28;20206;-83
2023/01/23 00:14:29;;;;;;;31.05;28.45;;;;;;;;;;5085728;28;20240;-84
2023/01/23 00:16:56;;;;;;;31.40;28.90;;;;;;;;;;5085314;28;20209;-83
2023/01/23 00:19:23;;;;;;;33.30;30.50;;;;;;;;;;5085477;28;20652;-83
2023/01/23 00:21:52;;;;;;;30.73;28.20;;;;;;;;;;5084874;28;20205;-82
2023/01/23 00:24:19;;;;;;;32.35;29.75;;;;;;;;;;5084585;28;20209;-83
2023/01/23 00:26:46;;;;;;;31.10;28.40;;;;;;;;;;5087677;28;20259;-85
2023/01/23 00:29:14;;;;;;;31.90;29.30;;;;;;;;;;5084519;28;20210;-81
2023/01/23 00:31:41;;;;;;;32.50;29.58;;;;;;;;;;5078798;28;20646;-83
2023/01/23 00:34:10;;;;;;;33.30;30.60;;;;;;;;;;5079709;28;20210;-84
2023/01/23 00:36:39;;;;;;;32.00;29.40;;;;;;;;;;5083615;28;20206;-83
2023/01/23 00:39:09;;;;;;;32.30;29.35;;;;;;;;;;5097377;28;20202;-82
2023/01/23 00:41:37;;;;;;;33.20;30.60;;;;;;;;;;5096392;28;20205;-82
2023/01/23 00:44:04;;;;;;;30.02;27.63;;;;;;;;;;5090426;28;20210;-85
2023/01/23 00:46:31;;;;;;;32.03;29.17;;;;;;;;;;5081942;28;20237;-85
2023/01/23 00:48:58;;;;;;;31.52;28.88;;;;;;;;;;5081391;28;20231;-84
2023/01/23 00:51:25;;;;;;;32.72;30.00;;;;;;;;;;5081974;28;20608;-84
2023/01/23 00:53:52;;;;;;;30.15;27.73;;;;;;;;;;5081996;28;20210;-83
2023/01/23 00:56:21;;;;;;;33.20;30.30;;;;;;;;;;5081151;28;20249;-84
2023/01/23 00:58:48;;;;;;;30.75;28.23;;;;;;;;;;5082670;28;20227;-85
2023/01/23 01:01:15;;;;;;;31.13;28.63;;;;;;;;;;5084269;28;20285;-85
2023/01/23 01:03:43;;;;;;;28.55;26.23;;;;;;;;;;5081856;28;20214;-85
2023/01/23 01:06:10;;;;;;;31.95;29.40;;;;;;;;;;5082728;28;20244;-85
2023/01/23 01:08:37;;;;;;;31.10;28.60;;;;;;;;;;5082141;28;20209;-84
2023/01/23 01:11:04;;;;;;;31.13;28.20;;;;;;;;;;5082641;28;20220;-84
2023/01/23 01:13:33;;;;;;;32.55;29.88;;;;;;;;;;5081899;28;20206;-84
2023/01/23 01:16:00;;;;;;;31.98;29.10;;;;;;;;;;5081775;28;20225;-83
2023/01/23 01:18:28;;;;;;;32.03;29.52;;;;;;;;;;5082501;28;20209;-85
2023/01/23 01:20:55;;;;;;;30.67;28.15;;;;;;;;;;5080349;28;20209;-83
2023/01/23 01:23:22;;;;;;;30.55;28.02;;;;;;;;;;5080986;28;20227;-84
2023/01/23 01:25:49;;;;;;;31.33;28.90;;;;;;;;;;5080304;28;20248;-85
2023/01/23 01:28:16;;;;;;;29.05;26.83;;;;;;;;;;5080901;28;20210;-84
2023/01/23 01:30:44;;;;;;;31.38;28.67;;;;;;;;;;5083092;28;20312;-84
2023/01/23 01:33:11;;;;;;;29.52;27.30;;;;;;;;;;5080247;28;20204;-85
2023/01/23 01:35:40;;;;;;;30.08;27.67;;;;;;;;;;5082133;28;20228;-85
2023/01/23 01:38:07;;;;;;;30.13;27.60;;;;;;;;;;5081825;28;20229;-84
2023/01/23 01:40:36;;;;;;;30.70;28.40;;;;;;;;;;5081910;28;20205;-85
2023/01/23 01:43:04;;;;;;;27.88;25.73;;;;;;;;;;5079893;28;20256;-85
2023/01/23 01:45:49;;;;;;;29.75;27.45;;;;;;;;;;5080881;28;20226;-85
2023/01/23 01:48:18;;;;;;;28.83;26.67;;;;;;;;;;5080652;28;20205;-84
2023/01/23 01:50:45;;;;;;;29.33;26.98;;;;;;;;;;5082544;28;20198;-85
2023/01/23 01:53:12;;;;;;;29.70;27.15;;;;;;;;;;5080499;28;20236;-84
2023/01/23 01:55:40;;;;;;;30.63;28.13;;;;;;;;;;5081019;28;20229;-84
2023/01/23 01:58:07;;;;;;;29.77;27.40;;;;;;;;;;5081617;28;20246;-84
2023/01/23 02:00:34;;;;;;;29.45;26.95;;;;;;;;;;5082369;28;20309;-83
2023/01/23 02:03:02;;;;;;;29.52;27.10;;;;;;;;;;5079956;28;20638;-83
2023/01/23 02:05:31;;;;;;;29.08;26.80;;;;;;;;;;5082117;28;20667;-84
2023/01/23 02:08:02;;;;;;;29.58;27.15;;;;;;;;;;5080530;28;20211;-83
2023/01/23 02:10:31;;;;;;;29.60;27.08;;;;;;;;;;5080606;28;20213;-84
2023/01/23 02:13:13;;;;;;;30.10;27.58;;;;;;;;;;5080154;28;20232;-85
2023/01/23 02:15:40;;;;;;;28.02;25.75;;;;;;;;;;5078952;28;20229;-85
2023/01/23 02:18:08;;;;;;;29.70;27.10;;;;;;;;;;5096075;28;20250;-83
2023/01/23 02:20:36;;;;;;;28.20;26.08;;;;;;;;;;5105590;28;20222;-84
2023/01/23 02:23:07;;;;;;;28.50;26.23;;;;;;;;;;5104716;28;20206;-84
2023/01/23 02:25:39;;;;;;;28.30;26.20;;;;;;;;;;5101403;28;20225;-85
2023/01/23 02:28:08;;;;;;;27.65;25.42;;;;;;;;;;5102678;28;20205;-85
2023/01/23 02:30:35;;;;;;;28.88;26.40;;;;;;;;;;5101791;28;20608;-84
2023/01/23 02:33:09;;;;;;;26.92;24.77;;;;;;;;;;5099509;28;20242;-84
2023/01/23 02:35:36;;;;;;;29.42;27.02;;;;;;;;;;5100300;28;20231;-85
2023/01/23 02:38:04;;;;;;;27.20;25.02;;;;;;;;;;5101101;28;20551;-84
2023/01/23 02:40:32;;;;;;;27.80;25.17;;;;;;;;;;5100293;28;20683;-83
2023/01/23 02:43:00;;;;;;;27.38;25.27;;;;;;;;;;5099690;28;20226;-83
2023/01/23 02:45:29;;;;;;;24.02;22.42;;;;;;;;;;5101353;28;20230;-83
2023/01/23 02:47:56;;;;;;;27.95;25.50;;;;;;;;;;5100627;28;20718;-84
2023/01/23 02:50:23;;;;;;;27.60;25.38;;;;;;;;;;5100218;28;20212;-83
2023/01/23 02:52:53;;;;;;;28.60;26.35;;;;;;;;;;5101981;28;20204;-83
2023/01/23 02:55:20;;;;;;;29.35;26.95;;;;;;;;;;5105297;28;20217;-84
2023/01/23 02:57:47;;;;;;;26.77;24.80;;;;;;;;;;5100131;28;20258;-87
2023/01/23 03:00:19;;;;;;;28.95;26.27;;;;;;;;;;5100792;28;20211;-84
2023/01/23 03:02:48;;;;;;;28.13;25.83;;;;;;;;;;5099983;28;20622;-83
2023/01/23 03:05:15;;;;;;;29.13;26.55;;;;;;;;;;5102418;28;20236;-83
2023/01/23 03:07:43;;;;;;;27.42;25.23;;;;;;;;;;5102360;28;20287;-83
2023/01/23 03:10:10;;;;;;;27.65;25.60;;;;;;;;;;5101216;28;20272;-85
2023/01/23 03:12:41;;;;;;;27.15;24.90;;;;;;;;;;5103047;28;20260;-84
2023/01/23 03:15:09;;;;;;;26.95;24.85;;;;;;;;;;5105432;28;20236;-84
2023/01/23 03:17:36;;;;;;;27.60;25.20;;;;;;;;;;5104370;28;20201;-85
2023/01/23 03:20:05;;;;;;;25.90;23.70;;;;;;;;;;5104731;28;20208;-84
2023/01/23 03:22:33;;;;;;;25.25;23.25;;;;;;;;;;5103999;28;20200;-84
2023/01/23 03:25:00;;;;;;;27.40;25.30;;;;;;;;;;5104193;28;20230;-84
2023/01/23 03:27:27;;;;;;;25.25;23.45;;;;;;;;;;5104897;28;20218;-84
2023/01/23 03:32:39;;;;;;;26.60;24.50;;;;;;;;;;5106514;28;20277;-83
2023/01/23 03:35:12;;;;;;;25.45;23.45;;;;;;;;;;5103685;28;20227;-84
2023/01/23 03:37:39;;;;;;;28.20;25.90;;;;;;;;;;5104300;28;20181;-84
2023/01/23 03:42:52;;;;;;;24.38;22.63;;;;;;;;;;5104032;28;20226;-83
2023/01/23 03:45:19;;;;;;;25.60;23.80;;;;;;;;;;5104679;28;20231;-83
2023/01/23 03:47:46;;;;;;;26.73;24.25;;;;;;;;;;5106666;28;20209;-82
2023/01/23 03:50:14;;;;;;;25.27;23.38;;;;;;;;;;5105344;28;20205;-84
2023/01/23 03:52:41;;;;;;;25.33;23.30;;;;;;;;;;5104279;28;20209;-84
2023/01/23 03:55:08;;;;;;;28.30;25.83;;;;;;;;;;5104007;28;20320;-86
2023/01/23 03:57:35;;;;;;;26.48;24.27;;;;;;;;;;5104121;28;20203;-83
2023/01/23 04:00:03;;;;;;;27.40;24.80;;;;;;;;;;5105526;28;20214;-83
2023/01/23 04:02:30;;;;;;;27.00;24.80;;;;;;;;;;5103637;28;20235;-83
2023/01/23 04:04:57;;;;;;;26.63;24.40;;;;;;;;;;5104605;28;20621;-84
2023/01/23 04:07:25;;;;;;;27.80;25.60;;;;;;;;;;5103029;28;20255;-84
2023/01/23 04:09:52;;;;;;;25.58;23.58;;;;;;;;;;5103633;28;20205;-84
2023/01/23 04:12:19;;;;;;;27.52;25.23;;;;;;;;;;5103564;28;20240;-83
2023/01/23 04:14:46;;;;;;;25.55;23.52;;;;;;;;;;5104306;28;20249;-83
2023/01/23 04:17:13;;;;;;;25.70;23.70;;;;;;;;;;5105139;28;20193;-83
2023/01/23 04:19:41;;;;;;;26.67;24.63;;;;;;;;;;5103059;28;20208;-82
2023/01/23 04:22:08;;;;;;;26.17;24.30;;;;;;;;;;5104811;28;20200;-84
2023/01/23 04:24:37;;;;;;;25.88;23.90;;;;;;;;;;5104616;28;20587;-83
2023/01/23 04:27:04;;;;;;;26.67;24.35;;;;;;;;;;5103411;28;20225;-83
2023/01/23 04:29:32;;;;;;;28.73;26.23;;;;;;;;;;5103651;28;20208;-84
2023/01/23 04:31:59;;;;;;;28.48;26.23;;;;;;;;;;5103192;28;20212;-83
2023/01/23 04:34:26;;;;;;;27.88;25.52;;;;;;;;;;5104592;28;20740;-83
2023/01/23 04:36:53;;;;;;;26.10;24.00;;;;;;;;;;5106226;28;20272;-84
2023/01/23 04:39:20;;;;;;;27.95;25.75;;;;;;;;;;5102731;28;20663;-82
2023/01/23 04:41:48;;;;;;;28.52;26.33;;;;;;;;;;5102026;28;20205;-85
2023/01/23 04:44:22;;;;;;;28.42;26.08;;;;;;;;;;5101031;28;20234;-83
2023/01/23 04:46:49;;;;;;;25.85;23.80;;;;;;;;;;5101602;28;20227;-84
2023/01/23 04:49:17;;;;;;;29.98;27.23;;;;;;;;;;5101239;28;20262;-83
2023/01/23 04:51:44;;;;;;;26.63;24.38;;;;;;;;;;5100924;28;20205;-84
2023/01/23 04:54:11;;;;;;;26.90;24.65;;;;;;;;;;5101860;28;20209;-84
2023/01/23 04:56:38;;;;;;;25.88;23.92;;;;;;;;;;5100352;28;20211;-84
2023/01/23 04:59:07;;;;;;;28.20;25.90;;;;;;;;;;5101763;28;20209;-84
2023/01/23 05:01:34;;;;;;;28.13;25.73;;;;;;;;;;5102198;28;20662;-83
2023/01/23 05:04:01;;;;;;;27.95;25.50;;;;;;;;;;5102387;28;20202;-85
2023/01/23 05:06:28;;;;;;;28.42;25.85;;;;;;;;;;5101329;28;20213;-84
2023/01/23 05:08:55;;;;;;;23.67;22.00;;;;;;;;;;5100983;28;20268;-83
2023/01/23 05:11:22;;;;;;;27.88;25.50;;;;;;;;;;5099775;28;20231;-84
2023/01/23 05:13:49;;;;;;;27.90;25.65;;;;;;;;;;5100253;28;20226;-84
2023/01/23 05:16:18;;;;;;;25.75;23.75;;;;;;;;;;5100385;28;20231;-82
2023/01/23 05:18:45;;;;;;;27.02;24.65;;;;;;;;;;5101295;28;20204;-82
2023/01/23 05:21:12;;;;;;;28.73;26.05;;;;;;;;;;5100674;28;20225;-83
2023/01/23 05:23:39;;;;;;;26.30;24.02;;;;;;;;;;5099313;28;20218;-83
2023/01/23 05:26:06;;;;;;;27.95;25.63;;;;;;;;;;5099980;28;20564;-83
2023/01/23 05:28:33;;;;;;;27.27;25.10;;;;;;;;;;5100801;28;20223;-82
2023/01/23 05:31:00;;;;;;;28.05;25.75;;;;;;;;;;5101729;28;20623;-81
2023/01/23 05:33:28;;;;;;;27.52;24.95;;;;;;;;;;5100629;28;20210;-82
2023/01/23 05:35:59;;;;;;;29.58;26.88;;;;;;;;;;5099878;28;20269;-83
2023/01/23 05:38:26;;;;;;;27.88;25.58;;;;;;;;;;5101750;28;20591;-83
2023/01/23 05:40:53;;;;;;;28.60;25.88;;;;;;;;;;5100165;28;20206;-81
2023/01/23 05:43:20;;;;;;;28.55;26.25;;;;;;;;;;5100361;28;20266;-81
2023/01/23 05:45:47;;;;;;;27.30;25.13;;;;;;;;;;5100090;28;20709;-83
2023/01/23 05:48:14;;;;;;;26.75;24.70;;;;;;;;;;5100253;28;20300;-82
2023/01/23 05:50:43;;;;;;;27.42;25.33;;;;;;;;;;5106266;28;20208;-83
2023/01/23 05:53:10;;;;;;;26.85;24.55;;;;;;;;;;5099657;28;20206;-83
2023/01/23 05:55:38;;;;;;;27.25;24.58;;;;;;;;;;5102796;28;20259;-84
2023/01/23 05:58:05;;;;;;;27.35;25.15;;;;;;;;;;5100496;28;20233;-83
2023/01/23 06:00:32;;;;;;;26.30;24.30;;;;;;;;;;5099677;28;20693;-83
2023/01/23 06:02:59;;;;;;;27.92;25.80;;;;;;;;;;5100959;28;20220;-83
2023/01/23 06:05:26;;;;;;;28.20;26.00;;;;;;;;;;5101012;28;20250;-84
2023/01/23 06:07:54;;;;;;;28.85;26.52;;;;;;;;;;5100767;28;20216;-83
2023/01/23 06:10:21;;;;;;;29.90;27.15;;;;;;;;;;5099869;28;20213;-84
2023/01/23 06:12:48;;;;;;;27.63;25.42;;;;;;;;;;5099665;28;20209;-83
2023/01/23 06:15:15;;;;;;;28.50;25.90;;;;;;;;;;5099412;28;20701;-82
2023/01/23 06:17:42;;;;;;;27.30;25.00;;;;;;;;;;5099827;28;20201;-83
2023/01/23 06:20:11;;;;;;;28.55;26.05;;;;;;;;;;5100040;28;20266;-84
2023/01/23 06:22:38;;;;;;;28.50;25.98;;;;;;;;;;5099443;28;20280;-84
2023/01/23 06:25:07;;;;;;;28.00;25.50;;;;;;;;;;5099128;28;20217;-84
2023/01/23 06:27:34;;;;;;;27.63;25.27;;;;;;;;;;5098854;28;20606;-82
2023/01/23 06:30:01;;;;;;;26.98;24.88;;;;;;;;;;5099795;28;20238;-82
2023/01/23 06:32:28;;;;;;;26.67;24.67;;;;;;;;;;5099321;28;20193;-83
2023/01/23 06:34:55;;;;;;;24.35;22.65;;;;;;;;;;5099302;28;20278;-83
2023/01/23 06:37:22;;;;;;;27.27;25.17;;;;;;;;;;5099065;28;20205;-84
2023/01/23 06:39:49;;;;;;;27.75;25.05;;;;;;;;;;5099320;28;20257;-83
2023/01/23 06:42:17;;;;;;;28.10;25.48;;;;;;;;;;5099226;28;20195;-83
2023/01/23 06:44:44;;;;;;;27.63;25.35;;;;;;;;;;5099015;28;20273;-84
2023/01/23 06:47:11;;;;;;;25.17;23.17;;;;;;;;;;5100989;28;20203;-82
2023/01/23 06:49:38;;;;;;;27.58;25.02;;;;;;;;;;5103970;28;20209;-84
2023/01/23 06:52:05;;;;;;;27.92;25.60;;;;;;;;;;5104041;28;20212;-83
2023/01/23 06:54:32;;;;;;;27.33;25.27;;;;;;;;;;5103128;28;20231;-83
2023/01/23 06:56:59;;;;;;;28.90;26.45;;;;;;;;;;5103158;28;20204;-84
2023/01/23 06:59:28;;;;;;;28.83;26.38;;;;;;;;;;5102649;28;20739;-83
2023/01/23 07:01:55;;;;;;;29.45;27.00;;;;;;;;;;5104303;28;20206;-83
2023/01/23 07:04:22;;;;;;;29.73;27.23;;;;;;;;;;5106648;28;20215;-84
2023/01/23 07:06:49;;;;;;;28.90;26.60;;;;;;;;;;5108720;28;20736;-84
2023/01/23 07:09:16;;;;;;;26.88;24.77;;;;;;;;;;5108323;28;20228;-83
2023/01/23 07:11:43;;;;;;;27.83;25.42;;;;;;;;;;5108909;28;20200;-83
2023/01/23 07:14:10;;;;;;;28.35;25.90;;;;;;;;;;5109272;28;20196;-83
2023/01/23 07:16:38;;;;;;;28.23;25.85;;;;;;;;;;5108313;28;20238;-84
2023/01/23 07:19:05;;;;;;;28.27;25.95;;;;;;;;;;5108485;28;20659;-84
2023/01/23 07:21:32;;;;;;;28.02;25.63;;;;;;;;;;5108125;28;20231;-82
2023/01/23 07:23:59;;;;;;;28.77;26.33;;;;;;;;;;5108874;28;20266;-83
2023/01/23 07:26:26;;;;;;;29.63;26.88;;;;;;;;;;5108636;28;20204;-83
2023/01/23 07:28:53;;;;;;;28.38;25.92;;;;;;;;;;5107109;28;20365;-84
2023/01/23 07:31:20;;;;;;;29.05;26.42;;;;;;;;;;5106699;28;20235;-82
2023/01/23 07:33:49;;;;;;;31.85;28.95;;;;;;;;;;5103243;28;20266;-80
2023/01/23 07:36:17;;;;;;;30.65;28.05;;;;;;;;;;5103022;28;20228;-80
2023/01/23 07:38:44;;;;;;;31.42;28.52;;;;;;;;;;5103389;28;20210;-80
2023/01/23 07:41:11;;;;;;;29.30;26.80;;;;;;;;;;5102250;28;20200;-81
2023/01/23 07:43:38;;;;;;;31.58;28.20;;;;;;;;;;5103260;28;20197;-80
2023/01/23 07:46:05;;;;;;;30.27;27.73;;;;;;;;;;5102404;28;20225;-81
2023/01/23 07:48:32;;;;;;;28.92;26.38;;;;;;;;;;5102442;28;20227;-80
2023/01/23 07:51:03;;;;;;;29.33;26.73;;;;;;;;;;5103188;28;20212;-80
2023/01/23 07:53:30;;;;;;;31.65;28.83;;;;;;;;;;5102152;28;20179;-81
2023/01/23 07:55:57;;;;;;;29.40;26.90;;;;;;;;;;5102311;28;20273;-80
2023/01/23 07:58:24;;;;;;;30.63;28.08;;;;;;;;;;5101972;28;20209;-80
2023/01/23 08:00:51;;;;;;;29.15;26.75;;;;;;;;;;5102879;28;20208;-81
2023/01/23 08:03:19;;;;;;;30.55;27.98;;;;;;;;;;5101966;28;20189;-80
2023/01/23 08:05:48;;;;;;;29.58;26.88;;;;;;;;;;5102697;28;20267;-80
2023/01/23 08:08:17;;;;;;;28.25;25.75;;;;;;;;;;5101518;28;20213;-80
2023/01/23 08:10:44;;;;;;;29.38;26.55;;;;;;;;;;5103062;28;20234;-80
2023/01/23 08:13:11;;;;;;;28.45;26.15;;;;;;;;;;5101039;28;20259;-81
2023/01/23 08:15:38;;;;;;;29.52;27.13;;;;;;;;;;5102584;28;20276;-80
2023/01/23 08:18:05;;;;;;;28.42;25.98;;;;;;;;;;5102996;28;20226;-81
2023/01/23 08:20:32;;;;;;;29.80;27.13;;;;;;;;;;5102035;28;20262;-81
2023/01/23 08:23:01;;;;;;;28.60;26.10;;;;;;;;;;5101516;28;20205;-81
2023/01/23 08:25:29;;;;;;;28.50;26.00;;;;;;;;;;5102021;28;20228;-80
2023/01/23 08:27:56;;;;;;;28.05;25.60;;;;;;;;;;5100971;28;20246;-80
2023/01/23 08:30:23;;;;;;;28.95;26.25;;;;;;;;;;5100414;28;20670;-79
2023/01/23 08:32:50;;;;;;;31.15;28.35;;;;;;;;;;5100278;28;20205;-80
2023/01/23 08:35:17;;;;;;;29.45;26.77;;;;;;;;;;5100404;28;20289;-80
2023/01/23 08:37:44;;;;;;;26.65;24.45;;;;;;;;;;5100874;28;20210;-79
2023/01/23 08:40:12;;;;;;;29.35;26.80;;;;;;;;;;5101532;28;20231;-86
2023/01/23 08:42:40;;;;;;;27.40;25.08;;;;;;;;;;5099862;28;20209;-86
2023/01/23 08:45:08;;;;;;;27.52;25.20;;;;;;;;;;5097898;28;20224;-87
2023/01/23 08:47:35;;;;;;;29.17;26.85;;;;;;;;;;5102926;28;20209;-82
2023/01/23 08:50:02;;;;;;;27.75;25.45;;;;;;;;;;5104610;28;20200;-81
2023/01/23 08:52:30;;;;;;;27.02;24.83;;;;;;;;;;5102941;28;20215;-81
2023/01/23 08:54:57;;;;;;;28.35;26.05;;;;;;;;;;5104222;28;20260;-82
2023/01/23 08:57:23;;;;;;;29.50;26.92;;;;;;;;;;5103446;28;20674;-81
2023/01/23 08:59:52;;;;;;;27.75;25.55;;;;;;;;;;5103354;28;20558;-80
2023/01/23 09:02:20;;;;;;;28.15;25.90;;;;;;;;;;5103122;28;20224;-80
2023/01/23 09:04:47;;;;;;;29.40;26.92;;;;;;;;;;5103665;28;20315;-81
2023/01/23 09:07:14;;;;;;;27.70;25.35;;;;;;;;;;5104016;28;20733;-82
2023/01/23 09:09:41;;;;;;;28.20;26.00;;;;;;;;;;5101669;28;20589;-80
2023/01/23 09:12:08;;;;;;;29.67;27.23;;;;;;;;;;5102751;28;20262;-80
2023/01/23 09:14:35;;;;;;;29.55;27.13;;;;;;;;;;5101964;28;20253;-81
2023/01/23 09:17:04;;;;;;;28.33;26.20;;;;;;;;;;5103397;28;20232;-81
2023/01/23 09:19:31;;;;;;;29.30;26.70;;;;;;;;;;5103679;28;20206;-80
2023/01/23 09:21:58;;;;;;;28.17;25.95;;;;;;;;;;5103664;28;20238;-81
2023/01/23 09:24:25;;;;;;;29.60;26.98;;;;;;;;;;5102728;28;20228;-80
2023/01/23 09:26:52;;;;;;;27.83;25.70;;;;;;;;;;5103167;28;20215;-81
2023/01/23 09:29:19;;;;;;;29.23;26.63;;;;;;;;;;5102333;28;20278;-80
2023/01/23 09:31:46;;;;;;;29.33;27.08;;;;;;;;;;5102378;28;20223;-80
2023/01/23 09:34:15;;;;;;;27.80;25.60;;;;;;;;;;5102422;28;20270;-81
2023/01/23 09:36:42;;;;;;;28.73;26.33;;;;;;;;;;5101995;28;20209;-81
2023/01/23 09:39:09;;;;;;;29.40;27.10;;;;;;;;;;5102346;28;20201;-81
2023/01/23 09:41:37;;;;;;;32.30;29.33;;;;;;;;;;5101554;28;20213;-79
2023/01/23 09:44:06;;;;;;;28.58;26.17;;;;;;;;;;5102179;28;20678;-80
2023/01/23 09:46:35;;;;;;;29.77;27.38;;;;;;;;;;5101580;28;20201;-80
2023/01/23 09:49:03;;;;;;;30.33;27.75;;;;;;;;;;5100561;28;20651;-81
2023/01/23 09:51:37;;;;;;;29.98;27.40;;;;;;;;;;5100542;28;20687;-81
2023/01/23 09:54:08;;;;;;;30.20;27.80;;;;;;;;;;5102471;28;20188;-80
2023/01/23 09:56:36;;;;;;;29.05;26.58;;;;;;;;;;5102708;28;20197;-80
2023/01/23 09:59:08;;;;;;;29.98;27.42;;;;;;;;;;5102635;28;20228;-83
2023/01/23 10:01:36;;;;;;;29.48;27.08;;;;;;;;;;5103441;28;20217;-80
2023/01/23 10:04:04;;;;;;;27.33;25.15;;;;;;;;;;5104904;28;20669;-82
2023/01/23 10:06:34;;;;;;;29.38;26.58;;;;;;;;;;5103556;28;20613;-80
2023/01/23 10:09:14;;;;;;;28.45;26.08;;;;;;;;;;5102837;28;20221;-79
2023/01/23 10:11:46;;;;;;;28.45;26.15;;;;;;;;;;5103130;28;20671;-80
2023/01/23 10:14:25;;;;;;;29.45;27.15;;;;;;;;;;5101529;28;20184;-79
2023/01/23 10:16:59;;;;;;;29.20;26.80;;;;;;;;;;5102383;28;20236;-80
2023/01/23 10:19:37;;;;;;;29.73;27.20;;;;;;;;;;5102676;28;20652;-80
2023/01/23 10:22:10;;;;;;;29.70;27.25;;;;;;;;;;5102869;28;20194;-79
2023/01/23 10:24:44;;;;;;;29.05;26.70;;;;;;;;;;5102024;28;20251;-80
2023/01/23 10:27:19;;;;;;;28.15;25.85;;;;;;;;;;5102456;28;20192;-83
2023/01/23 10:29:49;;;;;;;29.00;26.50;;;;;;;;;;5101924;28;20297;-87
2023/01/23 10:32:22;;;;;;;30.55;27.88;;;;;;;;;;5101415;28;20276;-79
2023/01/23 10:34:53;;;;;;;29.60;27.15;;;;;;;;;;5101740;28;20228;-81
2023/01/23 10:37:22;;;;;;;29.67;27.05;;;;;;;;;;5102395;28;20209;-80
2023/01/23 10:39:51;;;;;;;29.60;26.90;;;;;;;;;;5101247;28;20548;-79
2023/01/23 10:42:19;;;;;;;28.80;26.42;;;;;;;;;;5101660;28;20207;-81
2023/01/23 10:44:46;;;;;;;30.90;28.17;;;;;;;;;;5102909;28;20232;-84
2023/01/23 10:47:16;;;;;;;30.15;27.85;;;;;;;;;;5101160;28;20731;-77
2023/01/23 10:49:44;;;;;;;30.45;27.95;;;;;;;;;;5093695;28;20271;-77
2023/01/23 10:52:28;;;;;;;29.65;27.25;;;;;;;;;;5093633;28;20205;-77
2023/01/23 10:54:57;;;;;;;30.02;27.45;;;;;;;;;;5094020;28;20312;-77
2023/01/23 10:57:25;;;;;;;30.83;28.30;;;;;;;;;;5092970;28;20224;-78
2023/01/23 10:59:55;;;;;;;30.20;27.75;;;;;;;;;;5094654;28;20201;-85
2023/01/23 11:02:27;;;;;;;29.25;26.80;;;;;;;;;;5097343;28;20263;-77
2023/01/23 11:04:54;;;;;;;30.13;27.60;;;;;;;;;;5093644;28;20286;-78
2023/01/23 11:07:22;;;;;;;28.90;26.80;;;;;;;;;;5093603;28;20202;-77
2023/01/23 11:09:50;;;;;;;31.83;29.02;;;;;;;;;;5092884;28;20220;-77
2023/01/23 11:12:20;;;;;;;30.13;27.80;;;;;;;;;;5093190;28;20205;-77
2023/01/23 11:14:48;;;;;;;29.25;26.85;;;;;;;;;;5093490;28;20224;-77
2023/01/23 11:17:23;;;;;;;30.65;28.05;;;;;;;;;;5093628;28;20667;-79
2023/01/23 11:19:52;;;;;;;30.33;27.83;;;;;;;;;;5095692;28;20213;-77
2023/01/23 11:22:27;;;;;;;31.05;28.55;;;;;;;;;;5093223;28;20208;-82
2023/01/23 11:24:54;;;;;;;30.15;27.52;;;;;;;;;;5100281;28;20282;-78
2023/01/23 11:27:26;;;;;;;30.50;27.90;;;;;;;;;;5100627;28;20201;-78
2023/01/23 11:29:56;;;;;;;30.45;27.95;;;;;;;;;;5100383;28;20676;-79
2023/01/23 11:32:24;;;;;;;29.08;26.50;;;;;;;;;;5095642;28;20213;-76
2023/01/23 11:34:52;;;;;;;30.35;27.75;;;;;;;;;;5096784;28;20233;-81
2023/01/23 11:37:21;;;;;;;31.90;29.15;;;;;;;;;;5105598;28;20265;-80
2023/01/23 11:39:51;;;;;;;29.55;27.15;;;;;;;;;;5106673;28;20201;-79
2023/01/23 11:42:18;;;;;;;30.80;28.17;;;;;;;;;;5105174;28;20205;-80
2023/01/23 11:44:49;;;;;;;30.75;28.05;;;;;;;;;;5105417;28;20280;-78
2023/01/23 11:47:37;;;;;;;32.28;29.58;;;;;;;;;;5102798;28;20209;-78
2023/01/23 11:50:29;;;;;;;32.03;29.23;;;;;;;;;;5101154;28;20221;-78
2023/01/23 11:53:01;;;;;;;30.60;27.88;;;;;;;;;;5104520;28;20197;-79
2023/01/23 11:55:40;;;;;;;33.00;30.00;;;;;;;;;;5106410;28;20229;-78
2023/01/23 11:58:13;;;;;;;32.05;29.52;;;;;;;;;;5106724;28;20549;-78
2023/01/23 12:00:44;;;;;;;30.85;28.25;;;;;;;;;;5105539;28;20202;-78
2023/01/23 12:03:35;;;;;;;32.50;29.70;;;;;;;;;;5105747;28;20581;-79
2023/01/23 12:06:14;;;;;;;34.45;31.02;;;;;;;;;;5102278;28;20233;-78
2023/01/23 12:08:43;;;;;;;30.80;28.30;;;;;;;;;;5098641;28;20210;-78
2023/01/23 12:11:15;;;;;;;32.30;29.25;;;;;;;;;;5097631;28;20220;-79
2023/01/23 12:13:52;;;;;;;32.13;29.27;;;;;;;;;;5096941;28;20233;-79
2023/01/23 12:16:24;;;;;;;31.50;28.75;;;;;;;;;;5096523;28;20256;-78
2023/01/23 12:19:00;;;;;;;31.15;28.38;;;;;;;;;;5096649;28;20629;-78
2023/01/23 12:21:30;;;;;;;30.58;27.98;;;;;;;;;;5095761;28;20213;-78
2023/01/23 12:24:02;;;;;;;31.00;28.40;;;;;;;;;;5097288;28;20214;-78
2023/01/23 12:26:29;;;;;;;31.65;28.92;;;;;;;;;;5101970;28;20192;-78
2023/01/23 12:29:09;;;;;;;32.20;29.60;;;;;;;;;;5105568;28;20235;-78
2023/01/23 12:31:43;;;;;;;31.08;28.55;;;;;;;;;;5102217;28;20214;-79
2023/01/23 12:34:21;;;;;;;31.77;29.17;;;;;;;;;;5103910;28;20196;-79
2023/01/23 12:36:54;;;;;;;27.73;25.48;;;;;;;;;;5103523;28;20343;-78
2023/01/23 12:39:27;;;;;;;31.05;28.35;;;;;;;;;;5102833;28;20243;-78
2023/01/23 12:41:57;;;;;;;30.48;27.75;;;;;;;;;;5108279;28;20554;-78
2023/01/23 12:44:27;;;;;;;31.13;28.38;;;;;;;;;;5105520;28;20222;-78
2023/01/23 12:46:59;;;;;;;30.95;28.23;;;;;;;;;;5106910;28;20207;-78
2023/01/23 12:49:29;;;;;;;30.05;27.63;;;;;;;;;;5104346;28;20230;-78
2023/01/23 12:52:00;;;;;;;30.08;27.58;;;;;;;;;;5108030;28;20205;-78
2023/01/23 12:54:32;;;;;;;32.47;29.67;;;;;;;;;;5104578;28;20230;-78
2023/01/23 12:57:00;;;;;;;32.33;29.52;;;;;;;;;;5106875;28;20663;-78
2023/01/23 12:59:29;;;;;;;31.67;28.98;;;;;;;;;;5103998;28;20196;-78
2023/01/23 13:02:04;;;;;;;32.35;29.55;;;;;;;;;;5105948;28;20218;-78
2023/01/23 13:04:47;;;;;;;30.00;27.50;;;;;;;;;;5108471;28;20316;-78
2023/01/23 13:07:26;;;;;;;32.78;29.95;;;;;;;;;;5106436;28;20291;-78
2023/01/23 13:10:05;;;;;;;29.40;27.00;;;;;;;;;;5104557;28;20212;-78
2023/01/23 13:12:33;;;;;;;30.58;28.10;;;;;;;;;;5105236;28;20208;-78
2023/01/23 13:15:15;;;;;;;31.63;28.85;;;;;;;;;;5108543;28;20239;-78
2023/01/23 13:17:47;;;;;;;31.05;28.55;;;;;;;;;;5105728;28;20208;-78
2023/01/23 13:23:20;;;;;;;30.55;28.00;;;;;;;;;;5104059;28;20609;-78
2023/01/23 13:25:48;;;;;;;30.05;27.65;;;;;;;;;;5101719;28;20216;-78
2023/01/23 13:28:27;;;;;;;32.25;29.30;;;;;;;;;;5105818;28;20279;-78
2023/01/23 13:31:00;;;;;;;28.88;26.67;;;;;;;;;;5108205;28;20206;-78
2023/01/23 13:33:54;;;;;;;32.13;29.33;;;;;;;;;;5108187;28;20204;-78
2023/01/23 13:36:30;;;;;;;30.63;28.10;;;;;;;;;;5107747;28;20260;-78
2023/01/23 13:39:01;;;;;;;30.33;27.67;;;;;;;;;;5103205;28;20233;-78
2023/01/23 13:41:29;;;;;;;27.80;25.50;;;;;;;;;;5103027;28;20253;-79
2023/01/23 13:43:56;;;;;;;31.00;28.67;;;;;;;;;;5106238;28;20231;-78
2023/01/23 13:46:30;;;;;;;30.33;27.52;;;;;;;;;;5106807;28;20245;-77
2023/01/23 13:51:45;;;;;;;31.20;28.33;;;;;;;;;;5105049;28;20185;-78
2023/01/23 13:56:59;;;;;;;31.17;28.58;;;;;;;;;;5098774;28;20207;-78
2023/01/23 13:59:29;;;;;;;31.08;28.33;;;;;;;;;;5098785;28;20204;-78
2023/01/23 14:07:42;;;;;;;31.98;29.13;;;;;;;;;;5099330;28;20296;-79
2023/01/23 14:10:14;;;;;;;31.15;28.27;;;;;;;;;;5079280;28;20210;-79
2023/01/23 14:12:41;;;;;;;30.15;27.58;;;;;;;;;;5078718;28;20201;-80
2023/01/23 14:18:03;;;;;;;31.35;28.25;;;;;;;;;;5077243;28;20189;-80
2023/01/23 14:20:32;;;;;;;30.42;27.73;;;;;;;;;;5078133;28;20197;-80
2023/01/23 14:23:01;;;;;;;33.65;30.65;;;;;;;;;;5080287;28;20709;-78
2023/01/23 14:25:28;;;;;;;31.27;28.38;;;;;;;;;;5080796;28;20222;-79
2023/01/23 14:28:06;;;;;;;31.42;28.55;;;;;;;;;;5080964;28;20208;-84
2023/01/23 14:30:33;;;;;;;32.05;29.35;;;;;;;;;;5083863;28;20235;-80
2023/01/23 14:33:00;;;;;;;30.55;27.90;;;;;;;;;;5085725;28;20213;-79
2023/01/23 14:35:31;;;;;;;32.10;29.40;;;;;;;;;;5087407;28;20220;-84
2023/01/23 14:37:59;;;;;;;30.90;28.27;;;;;;;;;;5090242;28;20204;-83
2023/01/23 14:40:28;;;;;;;31.52;28.52;;;;;;;;;;5091734;28;20205;-84
2023/01/23 14:42:58;;;;;;;30.98;28.27;;;;;;;;;;5091304;28;20196;-84
2023/01/23 14:45:25;;;;;;;30.90;28.20;;;;;;;;;;5087000;28;20229;-84
2023/01/23 14:47:53;;;;;;;31.60;28.70;;;;;;;;;;5090038;28;20204;-84
2023/01/23 14:50:21;;;;;;;30.73;28.02;;;;;;;;;;5093834;28;20236;-84